sensor_id;sensor_type;location;lat;lon;timestamp;pressure;altitude;pressure_sealevel;temperature;humidity
13836;BME280;6988;52.614;13.500;2022-09-09T00:00:22;54024.06;;;-143.77;87.25
13836;BME280;6988;52.614;13.500;2022-09-09T00:05:23;54071.25;;;-143.77;86.75
13836;BME280;6988;52.614;13.500;2022-09-09T00:10:28;54042.50;;;-143.77;86.06
13836;BME280;6988;52.614;13.500;2022-09-09T00:15:25;54060.97;;;-143.77;85.68
13836;BME280;6988;52.614;13.500;2022-09-09T00:20:28;54069.19;;;-143.77;85.64
13836;BME280;6988;52.614;13.500;2022-09-09T00:25:31;54054.81;;;-143.77;85.83
13836;BME280;6988;52.614;13.500;2022-09-09T00:30:32;54048.66;;;-143.77;86.05
13836;BME280;6988;52.614;13.500;2022-09-09T00:35:29;54069.19;;;-143.77;86.21
13836;BME280;6988;52.614;13.500;2022-09-09T00:40:29;54134.84;;;-143.77;86.33
13836;BME280;6988;52.614;13.500;2022-09-09T00:45:48;54040.47;;;-143.77;86.42
13836;BME280;6988;52.614;13.500;2022-09-09T00:50:54;54075.34;;;-143.77;86.45
13836;BME280;6988;52.614;13.500;2022-09-09T00:56:03;54081.50;;;-143.77;86.28
13836;BME280;6988;52.614;13.500;2022-09-09T01:01:07;54089.72;;;-143.77;85.99
13836;BME280;6988;52.614;13.500;2022-09-09T01:06:15;54093.81;;;-143.77;85.80
13836;BME280;6988;52.614;13.500;2022-09-09T01:11:16;54089.72;;;-143.77;85.71
13836;BME280;6988;52.614;13.500;2022-09-09T01:16:13;54116.38;;;-143.77;85.89
13836;BME280;6988;52.614;13.500;2022-09-09T01:21:19;54110.22;;;-143.77;85.94
13836;BME280;6988;52.614;13.500;2022-09-09T01:26:20;54093.81;;;-143.77;85.82
13836;BME280;6988;52.614;13.500;2022-09-09T01:31:20;54073.28;;;-143.77;85.65
13836;BME280;6988;52.614;13.500;2022-09-09T01:36:21;54104.06;;;-143.77;85.73
13836;BME280;6988;52.614;13.500;2022-09-09T01:41:18;54089.72;;;-143.77;85.49
13836;BME280;6988;52.614;13.500;2022-09-09T01:46:17;54118.44;;;-143.77;85.18
13836;BME280;6988;52.614;13.500;2022-09-09T01:51:12;54138.94;;;-143.77;85.06
13836;BME280;6988;52.614;13.500;2022-09-09T01:56:25;54102.00;;;-143.77;84.72
13836;BME280;6988;52.614;13.500;2022-09-09T02:01:36;54110.22;;;-143.77;84.48
13836;BME280;6988;52.614;13.500;2022-09-09T02:06:36;54138.94;;;-143.77;84.33
13836;BME280;6988;52.614;13.500;2022-09-09T02:11:44;54132.78;;;-143.77;84.40
13836;BME280;6988;52.614;13.500;2022-09-09T02:16:52;54171.78;;;-143.77;84.30
13836;BME280;6988;52.614;13.500;2022-09-09T02:21:55;54147.16;;;-143.77;84.21
13836;BME280;6988;52.614;13.500;2022-09-09T02:26:54;54157.41;;;-143.77;84.32
13836;BME280;6988;52.614;13.500;2022-09-09T02:31:50;54126.63;;;-143.77;84.46
13836;BME280;6988;52.614;13.500;2022-09-09T02:36:50;54141.00;;;-143.77;85.14
13836;BME280;6988;52.614;13.500;2022-09-09T02:41:45;54138.94;;;-143.77;85.66
13836;BME280;6988;52.614;13.500;2022-09-09T02:47:10;54184.09;;;-143.77;85.93
13836;BME280;6988;52.614;13.500;2022-09-09T02:52:15;54157.41;;;-143.77;86.12
13836;BME280;6988;52.614;13.500;2022-09-09T02:57:13;54151.25;;;-143.77;85.64
13836;BME280;6988;52.614;13.500;2022-09-09T03:02:11;54153.31;;;-143.77;86.03
13836;BME280;6988;52.614;13.500;2022-09-09T03:07:06;54175.88;;;-143.77;86.33
13836;BME280;6988;52.614;13.500;2022-09-09T03:11:58;54182.03;;;-143.77;86.36
13836;BME280;6988;52.614;13.500;2022-09-09T03:16:52;54153.31;;;-143.77;85.94
13836;BME280;6988;52.614;13.500;2022-09-09T03:22:04;54149.22;;;-143.77;86.23
13836;BME280;6988;52.614;13.500;2022-09-09T03:26:58;54167.66;;;-143.77;86.40
13836;BME280;6988;52.614;13.500;2022-09-09T03:31:50;54169.72;;;-143.77;86.56
13836;BME280;6988;52.614;13.500;2022-09-09T03:36:42;54155.38;;;-143.77;87.10
13836;BME280;6988;52.614;13.500;2022-09-09T03:41:36;54175.88;;;-143.77;87.46
13836;BME280;6988;52.614;13.500;2022-09-09T03:46:29;54208.72;;;-143.77;87.92
13836;BME280;6988;52.614;13.500;2022-09-09T03:51:21;54167.66;;;-143.77;87.56
13836;BME280;6988;52.614;13.500;2022-09-09T03:56:13;54188.19;;;-143.77;87.73
13836;BME280;6988;52.614;13.500;2022-09-09T04:01:11;54163.56;;;-143.77;87.56
13836;BME280;6988;52.614;13.500;2022-09-09T04:06:07;54206.66;;;-143.77;87.11
13836;BME280;6988;52.614;13.500;2022-09-09T04:11:00;54200.50;;;-143.77;86.52
13836;BME280;6988;52.614;13.500;2022-09-09T04:15:58;54204.59;;;-143.77;85.83
13836;BME280;6988;52.614;13.500;2022-09-09T04:20:52;54179.97;;;-143.77;86.00
13836;BME280;6988;52.614;13.500;2022-09-09T04:25:50;54167.66;;;-143.77;85.88
13836;BME280;6988;52.614;13.500;2022-09-09T04:30:45;54208.72;;;-143.77;85.63
13836;BME280;6988;52.614;13.500;2022-09-09T04:35:39;54188.19;;;-143.77;85.50
13836;BME280;6988;52.614;13.500;2022-09-09T04:40:32;54188.19;;;-143.77;85.45
13836;BME280;6988;52.614;13.500;2022-09-09T04:45:25;54212.81;;;-143.77;85.79
13836;BME280;6988;52.614;13.500;2022-09-09T04:50:17;54196.41;;;-143.77;86.51
13836;BME280;6988;52.614;13.500;2022-09-09T04:55:11;54192.28;;;-143.77;88.09
13836;BME280;6988;52.614;13.500;2022-09-09T05:00:09;54184.09;;;-143.77;89.06
13836;BME280;6988;52.614;13.500;2022-09-09T05:05:05;54198.44;;;-143.77;89.47
13836;BME280;6988;52.614;13.500;2022-09-09T05:09:58;54229.22;;;-143.77;89.57
13836;BME280;6988;52.614;13.500;2022-09-09T05:14:50;54167.66;;;-143.77;90.04
13836;BME280;6988;52.614;13.500;2022-09-09T05:19:43;54194.34;;;-143.77;90.49
13836;BME280;6988;52.614;13.500;2022-09-09T05:24:36;54202.56;;;-143.77;90.94
13836;BME280;6988;52.614;13.500;2022-09-09T05:29:28;54175.88;;;-143.77;91.13
13836;BME280;6988;52.614;13.500;2022-09-09T05:34:21;54163.56;;;-143.77;91.41
13836;BME280;6988;52.614;13.500;2022-09-09T05:39:16;54173.81;;;-143.77;92.92
13836;BME280;6988;52.614;13.500;2022-09-09T05:44:08;54143.06;;;-143.77;93.51
13836;BME280;6988;52.614;13.500;2022-09-09T05:49:03;54124.59;;;-143.77;93.49
13836;BME280;6988;52.614;13.500;2022-09-09T05:53:57;54106.13;;;-143.77;93.29
13836;BME280;6988;52.614;13.500;2022-09-09T05:58:54;54120.47;;;-143.77;93.38
13836;BME280;6988;52.614;13.500;2022-09-09T06:03:49;54114.31;;;-143.77;93.23
13836;BME280;6988;52.614;13.500;2022-09-09T06:08:43;54132.78;;;-143.77;92.95
13836;BME280;6988;52.614;13.500;2022-09-09T06:13:38;54108.16;;;-143.77;92.64
13836;BME280;6988;52.614;13.500;2022-09-09T06:18:32;54143.06;;;-143.77;91.85
13836;BME280;6988;52.614;13.500;2022-09-09T06:23:25;54073.28;;;-143.77;90.36
13836;BME280;6988;52.614;13.500;2022-09-09T06:28:18;54024.06;;;-143.77;89.89
13836;BME280;6988;52.614;13.500;2022-09-09T06:33:10;54015.84;;;-143.77;89.40
13836;BME280;6988;52.614;13.500;2022-09-09T06:38:03;54005.59;;;-143.77;89.46
13836;BME280;6988;52.614;13.500;2022-09-09T06:42:59;53966.59;;;-143.77;85.44
13836;BME280;6988;52.614;13.500;2022-09-09T06:47:59;53937.88;;;-143.77;82.32
13836;BME280;6988;52.614;13.500;2022-09-09T06:52:53;53954.28;;;-143.77;81.81
13836;BME280;6988;52.614;13.500;2022-09-09T06:57:47;54009.69;;;-143.77;81.72
13836;BME280;6988;52.614;13.500;2022-09-09T07:02:44;53997.38;;;-143.77;80.69
13836;BME280;6988;52.614;13.500;2022-09-09T07:07:38;53925.56;;;-143.77;80.61
13836;BME280;6988;52.614;13.500;2022-09-09T07:12:30;53847.59;;;-143.77;80.13
13836;BME280;6988;52.614;13.500;2022-09-09T07:17:27;53849.66;;;-143.77;78.76
13836;BME280;6988;52.614;13.500;2022-09-09T07:22:20;53835.31;;;-143.77;74.82
13836;BME280;6988;52.614;13.500;2022-09-09T07:27:11;53792.22;;;-143.77;73.44
13836;BME280;6988;52.614;13.500;2022-09-09T07:32:04;53753.25;;;-143.77;71.61
13836;BME280;6988;52.614;13.500;2022-09-09T07:37:02;53714.25;;;-143.77;71.54
13836;BME280;6988;52.614;13.500;2022-09-09T07:41:56;53759.41;;;-143.77;69.05
13836;BME280;6988;52.614;13.500;2022-09-09T07:46:49;53691.69;;;-143.77;67.66
13836;BME280;6988;52.614;13.500;2022-09-09T07:51:46;53712.22;;;-143.77;68.32
13836;BME280;6988;52.614;13.500;2022-09-09T07:56:42;53646.56;;;-143.77;66.63
13836;BME280;6988;52.614;13.500;2022-09-09T08:01:37;53691.69;;;-143.77;66.92
13836;BME280;6988;52.614;13.500;2022-09-09T08:06:38;53632.19;;;-143.77;64.93
13836;BME280;6988;52.614;13.500;2022-09-09T08:11:33;53630.16;;;-143.77;61.86
13836;BME280;6988;52.614;13.500;2022-09-09T08:16:32;53605.53;;;-143.77;62.29
13836;BME280;6988;52.614;13.500;2022-09-09T08:21:28;53589.13;;;-143.77;61.45
13836;BME280;6988;52.614;13.500;2022-09-09T08:26:24;53574.75;;;-143.77;61.72
13836;BME280;6988;52.614;13.500;2022-09-09T08:31:20;53580.91;;;-143.77;59.98
13836;BME280;6988;52.614;13.500;2022-09-09T08:36:16;53640.41;;;-143.77;59.22
13836;BME280;6988;52.614;13.500;2022-09-09T08:41:55;53541.94;;;-143.77;60.42
13836;BME280;6988;52.614;13.500;2022-09-09T08:47:01;53634.25;;;-143.77;60.04
13836;BME280;6988;52.614;13.500;2022-09-09T08:51:59;53634.25;;;-143.77;60.51
13836;BME280;6988;52.614;13.500;2022-09-09T08:56:51;53679.38;;;-143.77;59.93
13836;BME280;6988;52.614;13.500;2022-09-09T09:01:53;53742.97;;;-143.77;61.97
13836;BME280;6988;52.614;13.500;2022-09-09T09:07:08;53728.63;;;-143.77;62.87
13836;BME280;6988;52.614;13.500;2022-09-09T09:12:16;53784.00;;;-143.77;62.58
13836;BME280;6988;52.614;13.500;2022-09-09T09:17:14;53775.81;;;-143.77;64.00
13836;BME280;6988;52.614;13.500;2022-09-09T09:22:18;53763.50;;;-143.77;64.88
13836;BME280;6988;52.614;13.500;2022-09-09T09:27:14;53650.66;;;-143.77;65.07
13836;BME280;6988;52.614;13.500;2022-09-09T09:32:18;53704.00;;;-143.77;62.18
13836;BME280;6988;52.614;13.500;2022-09-09T09:37:23;53617.84;;;-143.77;63.17
13836;BME280;6988;52.614;13.500;2022-09-09T09:42:20;53550.13;;;-143.77;61.04
13836;BME280;6988;52.614;13.500;2022-09-09T09:47:15;53455.78;;;-143.77;58.95
13836;BME280;6988;52.614;13.500;2022-09-09T09:52:21;53507.06;;;-143.77;58.83
13836;BME280;6988;52.614;13.500;2022-09-09T09:57:16;53558.34;;;-143.77;54.36
13836;BME280;6988;52.614;13.500;2022-09-09T10:02:17;53472.19;;;-143.77;56.89
13836;BME280;6988;52.614;13.500;2022-09-09T10:07:12;53474.25;;;-143.77;56.59
13836;BME280;6988;52.614;13.500;2022-09-09T10:12:16;53402.44;;;-143.77;54.16
13836;BME280;6988;52.614;13.500;2022-09-09T10:17:23;53363.47;;;-143.77;54.46
13836;BME280;6988;52.614;13.500;2022-09-09T10:22:26;53330.63;;;-143.77;49.82
13836;BME280;6988;52.614;13.500;2022-09-09T10:27:31;53418.84;;;-143.77;50.70
13836;BME280;6988;52.614;13.500;2022-09-09T10:32:38;53355.25;;;-143.77;51.06
13836;BME280;6988;52.614;13.500;2022-09-09T10:37:52;53328.59;;;-143.77;50.61
13836;BME280;6988;52.614;13.500;2022-09-09T10:42:50;53351.16;;;-143.77;51.16
13836;BME280;6988;52.614;13.500;2022-09-09T10:48:09;53404.50;;;-143.77;50.68
13836;BME280;6988;52.614;13.500;2022-09-09T10:53:14;53404.50;;;-143.77;50.89
13836;BME280;6988;52.614;13.500;2022-09-09T10:58:17;53279.34;;;-143.77;49.05
13836;BME280;6988;52.614;13.500;2022-09-09T11:03:20;53392.19;;;-143.77;48.53
13836;BME280;6988;52.614;13.500;2022-09-09T11:08:18;53433.22;;;-143.77;50.25
13836;BME280;6988;52.614;13.500;2022-09-09T11:13:18;53328.59;;;-143.77;48.08
13836;BME280;6988;52.614;13.500;2022-09-09T11:18:19;53277.31;;;-143.77;48.96
13836;BME280;6988;52.614;13.500;2022-09-09T11:23:17;53281.41;;;-143.77;46.83
13836;BME280;6988;52.614;13.500;2022-09-09T11:28:35;53230.13;;;-143.77;46.87
13836;BME280;6988;52.614;13.500;2022-09-09T11:34:00;53322.44;;;-143.77;49.65
13836;BME280;6988;52.614;13.500;2022-09-09T11:39:05;53507.06;;;-143.77;51.27
13836;BME280;6988;52.614;13.500;2022-09-09T11:44:11;53355.25;;;-143.77;49.80
13836;BME280;6988;52.614;13.500;2022-09-09T11:49:06;53572.72;;;-143.77;51.81
13836;BME280;6988;52.614;13.500;2022-09-09T11:54:29;53416.78;;;-143.77;52.73
13836;BME280;6988;52.614;13.500;2022-09-09T11:59:25;53429.09;;;-143.77;53.41
13836;BME280;6988;52.614;13.500;2022-09-09T12:04:35;53383.97;;;-143.77;48.22
13836;BME280;6988;52.614;13.500;2022-09-09T12:09:45;53326.53;;;-143.77;47.63
13836;BME280;6988;52.614;13.500;2022-09-09T12:14:55;53330.63;;;-143.77;45.63
13836;BME280;6988;52.614;13.500;2022-09-09T12:19:47;53369.63;;;-143.77;49.26
13836;BME280;6988;52.614;13.500;2022-09-09T12:24:46;53351.16;;;-143.77;48.42
13836;BME280;6988;52.614;13.500;2022-09-09T12:29:51;53490.66;;;-143.77;49.48
13836;BME280;6988;52.614;13.500;2022-09-09T12:34:50;53572.72;;;-143.77;49.42
13836;BME280;6988;52.614;13.500;2022-09-09T12:39:49;53607.59;;;-143.77;51.33
13836;BME280;6988;52.614;13.500;2022-09-09T12:44:54;53525.53;;;-143.77;52.42
13836;BME280;6988;52.614;13.500;2022-09-09T12:49:47;53543.97;;;-143.77;51.57
13836;BME280;6988;52.614;13.500;2022-09-09T12:54:45;53521.41;;;-143.77;51.98
13836;BME280;6988;52.614;13.500;2022-09-09T12:59:41;53572.72;;;-143.77;50.75
13836;BME280;6988;52.614;13.500;2022-09-09T13:04:36;53521.41;;;-143.77;51.25
13836;BME280;6988;52.614;13.500;2022-09-09T13:09:28;53535.78;;;-143.77;49.38
13836;BME280;6988;52.614;13.500;2022-09-09T13:14:29;53543.97;;;-143.77;47.70
13836;BME280;6988;52.614;13.500;2022-09-09T13:19:23;53541.94;;;-143.77;48.42
13836;BME280;6988;52.614;13.500;2022-09-09T13:24:29;53624.00;;;-143.77;48.25
13836;BME280;6988;52.614;13.500;2022-09-09T13:29:21;53548.09;;;-143.77;48.59
13836;BME280;6988;52.614;13.500;2022-09-09T13:34:26;53580.91;;;-143.77;50.44
13836;BME280;6988;52.614;13.500;2022-09-09T13:39:18;53560.41;;;-143.77;51.11
13836;BME280;6988;52.614;13.500;2022-09-09T13:44:23;53597.31;;;-143.77;51.72
13836;BME280;6988;52.614;13.500;2022-09-09T13:49:22;53572.72;;;-143.77;51.42
13836;BME280;6988;52.614;13.500;2022-09-09T13:54:16;53595.28;;;-143.77;52.21
13836;BME280;6988;52.614;13.500;2022-09-09T13:59:12;53525.53;;;-143.77;51.63
13836;BME280;6988;52.614;13.500;2022-09-09T14:04:06;53513.22;;;-143.77;51.10
13836;BME280;6988;52.614;13.500;2022-09-09T14:08:59;53498.84;;;-143.77;47.85
13836;BME280;6988;52.614;13.500;2022-09-09T14:13:50;53566.56;;;-143.77;45.72
13836;BME280;6988;52.614;13.500;2022-09-09T14:18:42;53543.97;;;-143.77;46.46
13836;BME280;6988;52.614;13.500;2022-09-09T14:23:36;53548.09;;;-143.77;45.93
13836;BME280;6988;52.614;13.500;2022-09-09T14:28:28;53511.16;;;-143.77;46.90
13836;BME280;6988;52.614;13.500;2022-09-09T14:33:20;53486.53;;;-143.77;47.88
13836;BME280;6988;52.614;13.500;2022-09-09T14:38:12;53519.38;;;-143.77;47.42
13836;BME280;6988;52.614;13.500;2022-09-09T14:43:05;53515.25;;;-143.77;46.81
13836;BME280;6988;52.614;13.500;2022-09-09T14:47:57;53546.03;;;-143.77;47.32
13836;BME280;6988;52.614;13.500;2022-09-09T14:52:49;53605.53;;;-143.77;47.81
13836;BME280;6988;52.614;13.500;2022-09-09T14:57:44;53486.53;;;-143.77;48.49
13836;BME280;6988;52.614;13.500;2022-09-09T15:02:38;53566.56;;;-143.77;48.56
13836;BME280;6988;52.614;13.500;2022-09-09T15:07:29;53568.59;;;-143.77;49.46
13836;BME280;6988;52.614;13.500;2022-09-09T15:12:22;53572.72;;;-143.77;50.25
13836;BME280;6988;52.614;13.500;2022-09-09T15:17:14;53603.47;;;-143.77;50.56
13836;BME280;6988;52.614;13.500;2022-09-09T15:22:07;53636.31;;;-143.77;51.29
13836;BME280;6988;52.614;13.500;2022-09-09T15:27:00;53609.63;;;-143.77;52.68
13836;BME280;6988;52.614;13.500;2022-09-09T15:31:53;53585.00;;;-143.77;53.48
13836;BME280;6988;52.614;13.500;2022-09-09T15:36:46;53613.72;;;-143.77;53.51
13836;BME280;6988;52.614;13.500;2022-09-09T15:41:39;53660.91;;;-143.77;52.26
13836;BME280;6988;52.614;13.500;2022-09-09T15:46:35;53654.75;;;-143.77;52.35
13836;BME280;6988;52.614;13.500;2022-09-09T15:51:27;53624.00;;;-143.77;51.36
13836;BME280;6988;52.614;13.500;2022-09-09T15:56:19;53644.50;;;-143.77;53.37
13836;BME280;6988;52.614;13.500;2022-09-09T16:01:12;53667.06;;;-143.77;52.93
13836;BME280;6988;52.614;13.500;2022-09-09T16:06:05;53693.75;;;-143.77;52.39
13836;BME280;6988;52.614;13.500;2022-09-09T16:11:04;53652.72;;;-143.77;52.96
13836;BME280;6988;52.614;13.500;2022-09-09T16:15:56;53675.28;;;-143.77;53.09
13836;BME280;6988;52.614;13.500;2022-09-09T16:20:54;53716.31;;;-143.77;56.76
13836;BME280;6988;52.614;13.500;2022-09-09T16:25:54;53699.91;;;-143.77;59.72
13836;BME280;6988;52.614;13.500;2022-09-09T16:30:46;53728.63;;;-143.77;59.52
13836;BME280;6988;52.614;13.500;2022-09-09T16:35:37;53728.63;;;-143.77;59.81
13836;BME280;6988;52.614;13.500;2022-09-09T16:40:33;53747.09;;;-143.77;60.07
13836;BME280;6988;52.614;13.500;2022-09-09T16:45:27;53704.00;;;-143.77;61.49
13836;BME280;6988;52.614;13.500;2022-09-09T16:50:18;53736.81;;;-143.77;62.36
13836;BME280;6988;52.614;13.500;2022-09-09T16:55:10;53732.72;;;-143.77;63.85
13836;BME280;6988;52.614;13.500;2022-09-09T17:00:05;53728.63;;;-143.77;64.74
13836;BME280;6988;52.614;13.500;2022-09-09T17:04:58;53775.81;;;-143.77;64.59
13836;BME280;6988;52.614;13.500;2022-09-09T17:09:50;53724.50;;;-143.77;64.09
13836;BME280;6988;52.614;13.500;2022-09-09T17:14:42;53786.06;;;-143.77;60.64
13836;BME280;6988;52.614;13.500;2022-09-09T17:19:37;53757.34;;;-143.77;63.65
13836;BME280;6988;52.614;13.500;2022-09-09T17:24:29;53777.84;;;-143.77;62.91
13836;BME280;6988;52.614;13.500;2022-09-09T17:29:21;53806.56;;;-143.77;62.80
13836;BME280;6988;52.614;13.500;2022-09-09T17:34:13;53786.06;;;-143.77;64.31
13836;BME280;6988;52.614;13.500;2022-09-09T17:39:06;53837.34;;;-143.77;65.00
13836;BME280;6988;52.614;13.500;2022-09-09T17:43:59;53829.16;;;-143.77;65.74
13836;BME280;6988;52.614;13.500;2022-09-09T17:48:55;53853.75;;;-143.77;67.14
13836;BME280;6988;52.614;13.500;2022-09-09T17:53:49;53847.59;;;-143.77;68.01
13836;BME280;6988;52.614;13.500;2022-09-09T17:58:43;53864.03;;;-143.77;67.67
13836;BME280;6988;52.614;13.500;2022-09-09T18:03:36;53851.72;;;-143.77;62.24
13836;BME280;6988;52.614;13.500;2022-09-09T18:08:29;53888.63;;;-143.77;62.85
13836;BME280;6988;52.614;13.500;2022-09-09T18:13:21;53905.06;;;-143.77;63.83
13836;BME280;6988;52.614;13.500;2022-09-09T18:18:15;53913.25;;;-143.77;64.25
13836;BME280;6988;52.614;13.500;2022-09-09T18:23:07;53911.22;;;-143.77;65.11
13836;BME280;6988;52.614;13.500;2022-09-09T18:27:58;53898.91;;;-143.77;65.43
13836;BME280;6988;52.614;13.500;2022-09-09T18:32:50;53917.38;;;-143.77;64.12
13836;BME280;6988;52.614;13.500;2022-09-09T18:37:46;53909.16;;;-143.77;64.53
13836;BME280;6988;52.614;13.500;2022-09-09T18:42:37;53933.78;;;-143.77;65.43
13836;BME280;6988;52.614;13.500;2022-09-09T18:47:29;53958.41;;;-143.77;66.03
13836;BME280;6988;52.614;13.500;2022-09-09T18:52:21;53927.63;;;-143.77;65.88
13836;BME280;6988;52.614;13.500;2022-09-09T18:57:14;53915.31;;;-143.77;65.70
13836;BME280;6988;52.614;13.500;2022-09-09T19:02:05;53935.84;;;-143.77;66.60
13836;BME280;6988;52.614;13.500;2022-09-09T19:06:58;53937.88;;;-143.77;67.12
13836;BME280;6988;52.614;13.500;2022-09-09T19:11:50;53968.66;;;-143.77;67.28
13836;BME280;6988;52.614;13.500;2022-09-09T19:16:44;53978.91;;;-143.77;68.38
13836;BME280;6988;52.614;13.500;2022-09-09T19:21:40;53958.41;;;-143.77;68.96
13836;BME280;6988;52.614;13.500;2022-09-09T19:26:35;53993.28;;;-143.77;69.38
13836;BME280;6988;52.614;13.500;2022-09-09T19:31:29;53980.97;;;-143.77;69.96
13836;BME280;6988;52.614;13.500;2022-09-09T19:36:25;53995.31;;;-143.77;69.25
13836;BME280;6988;52.614;13.500;2022-09-09T19:41:20;54009.69;;;-143.77;69.46
13836;BME280;6988;52.614;13.500;2022-09-09T19:46:14;53978.91;;;-143.77;69.84
13836;BME280;6988;52.614;13.500;2022-09-09T19:51:10;53978.91;;;-143.77;70.11
13836;BME280;6988;52.614;13.500;2022-09-09T19:56:05;54048.66;;;-143.77;70.98
13836;BME280;6988;52.614;13.500;2022-09-09T20:01:05;54003.53;;;-143.77;71.03
13836;BME280;6988;52.614;13.500;2022-09-09T20:05:57;54040.47;;;-143.77;71.54
13836;BME280;6988;52.614;13.500;2022-09-09T20:10:50;53978.91;;;-143.77;71.55
13836;BME280;6988;52.614;13.500;2022-09-09T20:15:44;54007.63;;;-143.77;70.91
13836;BME280;6988;52.614;13.500;2022-09-09T20:20:40;54019.94;;;-143.77;69.89
13836;BME280;6988;52.614;13.500;2022-09-09T20:25:35;54005.59;;;-143.77;69.41
13836;BME280;6988;52.614;13.500;2022-09-09T20:30:26;54026.09;;;-143.77;67.70
13836;BME280;6988;52.614;13.500;2022-09-09T20:35:19;53995.31;;;-143.77;67.50
13836;BME280;6988;52.614;13.500;2022-09-09T20:40:11;53980.97;;;-143.77;67.17
13836;BME280;6988;52.614;13.500;2022-09-09T20:45:05;53995.31;;;-143.77;67.59
13836;BME280;6988;52.614;13.500;2022-09-09T20:49:56;53983.00;;;-143.77;67.94
13836;BME280;6988;52.614;13.500;2022-09-09T20:54:51;54019.94;;;-143.77;67.68
13836;BME280;6988;52.614;13.500;2022-09-09T20:59:43;54015.84;;;-143.77;68.07
13836;BME280;6988;52.614;13.500;2022-09-09T21:04:37;54005.59;;;-143.77;68.47
13836;BME280;6988;52.614;13.500;2022-09-09T21:09:29;54030.22;;;-143.77;69.12
13836;BME280;6988;52.614;13.500;2022-09-09T21:14:23;53995.31;;;-143.77;69.77
13836;BME280;6988;52.614;13.500;2022-09-09T21:19:16;54032.25;;;-143.77;70.21
13836;BME280;6988;52.614;13.500;2022-09-09T21:24:08;54095.88;;;-143.77;70.07
13836;BME280;6988;52.614;13.500;2022-09-09T21:29:00;53995.31;;;-143.77;70.52
13836;BME280;6988;52.614;13.500;2022-09-09T21:33:53;54056.88;;;-143.77;71.09
13836;BME280;6988;52.614;13.500;2022-09-09T21:38:45;54019.94;;;-143.77;71.55
13836;BME280;6988;52.614;13.500;2022-09-09T21:43:36;54036.38;;;-143.77;71.60
13836;BME280;6988;52.614;13.500;2022-09-09T22:04:35;54073.28;;;-143.77;74.09
13836;BME280;6988;52.614;13.500;2022-09-09T22:09:26;54065.09;;;-143.77;74.91
13836;BME280;6988;52.614;13.500;2022-09-09T22:14:18;54075.34;;;-143.77;74.98
13836;BME280;6988;52.614;13.500;2022-09-09T22:19:10;54077.41;;;-143.77;74.49
13836;BME280;6988;52.614;13.500;2022-09-09T22:24:04;54102.00;;;-143.77;74.60
13836;BME280;6988;52.614;13.500;2022-09-09T22:28:56;54087.66;;;-143.77;74.60
13836;BME280;6988;52.614;13.500;2022-09-09T22:33:49;54085.59;;;-143.77;74.58
13836;BME280;6988;52.614;13.500;2022-09-09T22:38:41;54073.28;;;-143.77;74.18
13836;BME280;6988;52.614;13.500;2022-09-09T22:43:34;54099.97;;;-143.77;73.72
13836;BME280;6988;52.614;13.500;2022-09-09T22:48:26;54106.13;;;-143.77;73.50
13836;BME280;6988;52.614;13.500;2022-09-09T22:53:18;54075.34;;;-143.77;73.58
13836;BME280;6988;52.614;13.500;2022-09-09T22:58:10;54099.97;;;-143.77;73.51
13836;BME280;6988;52.614;13.500;2022-09-09T23:03:03;54067.13;;;-143.77;73.58
13836;BME280;6988;52.614;13.500;2022-09-09T23:07:55;54081.50;;;-143.77;73.50
13836;BME280;6988;52.614;13.500;2022-09-09T23:12:48;54081.50;;;-143.77;74.14
13836;BME280;6988;52.614;13.500;2022-09-09T23:17:39;54104.06;;;-143.77;74.52
13836;BME280;6988;52.614;13.500;2022-09-09T23:22:33;54085.59;;;-143.77;74.61
13836;BME280;6988;52.614;13.500;2022-09-09T23:27:25;54106.13;;;-143.77;74.64
13836;BME280;6988;52.614;13.500;2022-09-09T23:32:19;54102.00;;;-143.77;74.76
13836;BME280;6988;52.614;13.500;2022-09-09T23:37:11;54065.09;;;-143.77;74.91
13836;BME280;6988;52.614;13.500;2022-09-09T23:42:05;54126.63;;;-143.77;74.94
13836;BME280;6988;52.614;13.500;2022-09-09T23:46:57;54106.13;;;-143.77;75.90
13836;BME280;6988;52.614;13.500;2022-09-09T23:51:49;54134.84;;;-143.77;76.52
13836;BME280;6988;52.614;13.500;2022-09-09T23:56:41;54097.91;;;-143.77;76.96
